createdAt,value
2018-04-14T00:00:45.396Z,17.27
2018-04-14T00:03:12.893Z,17.13
2018-04-14T00:05:40.360Z,16.57
2018-04-14T00:08:07.840Z,16.40
2018-04-14T00:10:35.324Z,16.57
2018-04-14T00:13:02.805Z,16.03
2018-04-14T00:15:30.269Z,16.27
2018-04-14T00:17:57.758Z,15.93
2018-04-14T00:20:25.220Z,14.40
2018-04-14T00:22:52.685Z,14.50
2018-04-14T00:25:20.948Z,14.47
2018-04-14T00:27:48.422Z,14.33
2018-04-14T00:30:16.666Z,13.43
2018-04-14T00:32:44.151Z,12.37
2018-04-14T00:35:12.400Z,12.97
2018-04-14T00:37:39.865Z,12.70
2018-04-14T00:40:07.349Z,12.47
2018-04-14T00:42:35.580Z,11.77
2018-04-14T00:45:03.065Z,13.07
2018-04-14T00:47:31.300Z,11.53
2018-04-14T00:49:58.765Z,12.60
2018-04-14T00:52:26.249Z,12.50
2018-04-14T00:54:54.489Z,11.87
2018-04-14T00:57:21.969Z,11.67
2018-04-14T00:59:49.440Z,11.23
2018-04-14T01:02:17.694Z,10.40
2018-04-14T01:04:45.173Z,11.10
2018-04-14T01:07:13.417Z,11.07
2018-04-14T01:09:40.884Z,10.03
2018-04-14T01:12:08.371Z,11.00
2018-04-14T01:14:35.842Z,10.83
2018-04-14T01:17:03.327Z,11.23
2018-04-14T01:19:30.792Z,11.33
2018-04-14T01:21:58.295Z,10.63
2018-04-14T01:24:25.761Z,9.87
2018-04-14T01:26:53.225Z,11.30
2018-04-14T01:29:20.705Z,9.83
2018-04-14T01:31:48.169Z,9.87
2018-04-14T01:34:15.648Z,10.13
2018-04-14T01:36:43.117Z,9.50
2018-04-14T01:39:11.365Z,9.30
2018-04-14T01:41:38.836Z,8.90
2018-04-14T01:44:07.069Z,8.63
2018-04-14T01:46:34.568Z,8.87
2018-04-14T01:49:02.028Z,8.73
2018-04-14T01:51:30.280Z,8.07
2018-04-14T01:53:57.768Z,8.57
2018-04-14T01:56:26.013Z,8.20
2018-04-14T01:58:53.472Z,7.73
2018-04-14T02:01:21.697Z,8.30
2018-04-14T02:03:49.178Z,7.90
2018-04-14T02:06:16.642Z,8.53
2018-04-14T02:08:44.124Z,8.37
2018-04-14T02:11:11.589Z,8.00
2018-04-14T02:13:39.842Z,8.50
2018-04-14T02:16:07.312Z,8.27
2018-04-14T02:18:35.548Z,8.17
2018-04-14T02:21:03.037Z,7.67
2018-04-14T02:23:30.500Z,7.40
2018-04-14T02:25:57.989Z,7.23
2018-04-14T02:28:25.449Z,7.67
2018-04-14T02:30:53.279Z,7.53
2018-04-14T02:33:21.537Z,7.90
2018-04-14T02:35:49.001Z,7.00
2018-04-14T02:38:16.501Z,6.83
2018-04-14T02:40:43.965Z,6.87
2018-04-14T02:43:11.445Z,7.40
2018-04-14T02:45:38.905Z,8.10
2018-04-14T02:48:06.389Z,7.30
2018-04-14T02:50:34.697Z,7.50
2018-04-14T02:53:02.160Z,7.63
2018-04-14T02:55:29.641Z,7.80
2018-04-14T02:57:57.113Z,8.40
2018-04-14T03:00:24.608Z,7.93
2018-04-14T03:02:52.180Z,8.17
2018-04-14T03:05:19.660Z,7.73
2018-04-14T03:07:47.141Z,7.03
2018-04-14T03:10:14.615Z,7.27
2018-04-14T03:12:42.865Z,7.67
2018-04-14T03:15:10.320Z,7.20
2018-04-14T03:17:37.803Z,7.67
2018-04-14T03:20:06.033Z,7.40
2018-04-14T03:22:33.788Z,7.17
2018-04-14T03:25:01.267Z,7.13
2018-04-14T03:27:28.732Z,7.10
2018-04-14T03:29:56.211Z,7.30
2018-04-14T03:32:24.441Z,7.00
2018-04-14T03:34:51.918Z,7.03
2018-04-14T03:37:19.377Z,6.57
2018-04-14T03:39:46.983Z,7.07
2018-04-14T03:42:14.440Z,6.53
2018-04-14T03:44:41.995Z,6.80
2018-04-14T03:47:09.472Z,6.93
2018-04-14T03:49:37.008Z,7.60
2018-04-14T03:52:04.484Z,7.60
2018-04-14T03:54:32.028Z,7.37
2018-04-14T03:56:59.508Z,8.10
2018-04-14T03:59:26.974Z,7.60
2018-04-14T04:01:54.432Z,8.50
2018-04-14T04:04:21.915Z,8.60
2018-04-14T04:06:50.140Z,7.83
2018-04-14T04:09:17.621Z,8.47
2018-04-14T04:11:45.084Z,8.30
2018-04-14T04:14:12.573Z,9.07
2018-04-14T04:16:40.038Z,8.77
2018-04-14T04:19:19.368Z,9.17
2018-04-14T04:21:58.913Z,9.30
2018-04-14T04:24:38.424Z,9.37
2018-04-14T04:27:06.665Z,9.13
2018-04-14T04:29:34.128Z,9.13
2018-04-14T04:32:01.612Z,9.43
2018-04-14T04:34:29.839Z,9.17
2018-04-14T04:36:57.316Z,8.67
2018-04-14T04:39:24.780Z,9.33
2018-04-14T04:41:52.285Z,9.10
2018-04-14T04:44:19.748Z,9.47
2018-04-14T04:46:47.209Z,9.37
2018-04-14T04:49:14.689Z,10.07
2018-04-14T04:51:42.162Z,10.17
2018-04-14T04:54:09.645Z,9.67
2018-04-14T04:56:37.120Z,9.13
2018-04-14T04:59:04.612Z,10.27
2018-04-14T05:01:32.076Z,10.60
2018-04-14T05:03:59.573Z,10.57
2018-04-14T05:06:27.143Z,11.07
2018-04-14T05:08:54.604Z,10.97
2018-04-14T05:11:22.091Z,10.40
2018-04-14T05:13:49.553Z,10.57
2018-04-14T05:16:17.040Z,10.80
2018-04-14T05:18:45.274Z,10.07
2018-04-14T05:21:12.754Z,9.77
2018-04-14T05:23:40.234Z,9.33
2018-04-14T05:26:07.716Z,10.10
2018-04-14T05:28:35.193Z,9.97
2018-04-14T05:31:02.677Z,9.67
2018-04-14T05:33:30.445Z,10.00
2018-04-14T05:35:58.677Z,10.33
2018-04-14T05:38:26.140Z,10.23
2018-04-14T05:40:53.629Z,10.90
2018-04-14T05:43:21.105Z,9.77
2018-04-14T05:45:49.349Z,10.23
2018-04-14T05:48:16.811Z,9.00
2018-04-14T05:50:45.061Z,9.23
2018-04-14T05:53:12.529Z,9.60
2018-04-14T05:55:39.998Z,9.90
2018-04-14T05:58:07.513Z,10.70
2018-04-14T06:00:34.983Z,10.87
2018-04-14T06:03:02.489Z,12.47
2018-04-14T06:05:30.724Z,12.73
2018-04-14T06:07:58.213Z,14.77
2018-04-14T06:10:26.446Z,16.93
2018-04-14T06:12:53.974Z,19.87
2018-04-14T06:15:21.479Z,22.30
2018-04-14T06:17:48.945Z,21.77
2018-04-14T06:20:17.197Z,22.37
2018-04-14T06:22:44.668Z,21.43
2018-04-14T06:25:12.454Z,22.60
2018-04-14T06:27:40.697Z,24.17
2018-04-14T06:30:08.174Z,25.60
2018-04-14T06:32:36.483Z,25.50
2018-04-14T06:35:03.931Z,27.27
2018-04-14T06:37:31.432Z,26.97
2018-04-14T06:39:58.909Z,28.10
2018-04-14T06:42:26.385Z,28.23
2018-04-14T06:44:53.873Z,29.20
2018-04-14T06:47:21.348Z,28.40
2018-04-14T06:49:48.840Z,30.93
2018-04-14T06:52:16.304Z,30.33
2018-04-14T06:54:44.833Z,29.67
2018-04-14T06:57:12.372Z,31.27
2018-04-14T06:59:39.841Z,32.40
2018-04-14T07:02:07.385Z,31.50
2018-04-14T07:04:34.871Z,28.93
2018-04-14T07:07:02.400Z,29.07
2018-04-14T07:09:29.868Z,24.83
2018-04-14T07:11:57.357Z,25.73
2018-04-14T07:14:24.836Z,24.47
2018-04-14T07:16:53.076Z,24.07
2018-04-14T07:19:20.561Z,23.50
2018-04-14T07:21:48.808Z,23.90
2018-04-14T07:24:16.344Z,24.80
2018-04-14T07:26:43.837Z,25.37
2018-04-14T07:29:11.328Z,26.57
2018-04-14T07:31:39.560Z,27.83
2018-04-14T07:34:07.037Z,27.23
2018-04-14T07:36:34.525Z,28.43
2018-04-14T07:39:01.998Z,26.47
2018-04-14T07:41:29.550Z,26.23
2018-04-14T07:43:57.017Z,25.37
2018-04-14T07:46:24.517Z,25.53
2018-04-14T07:48:51.994Z,25.00
2018-04-14T07:51:20.240Z,24.10
2018-04-14T07:53:47.721Z,27.43
2018-04-14T07:56:15.213Z,28.57
2018-04-14T07:58:42.709Z,28.93
2018-04-14T08:01:10.181Z,31.30
2018-04-14T08:03:38.449Z,27.37
2018-04-14T08:06:05.925Z,27.77
2018-04-14T08:08:34.170Z,27.07
2018-04-14T08:11:01.665Z,27.40
2018-04-14T08:13:29.157Z,25.97
2018-04-14T08:15:56.644Z,28.00
2018-04-14T08:18:24.188Z,31.50
2018-04-14T08:20:51.624Z,29.97
2018-04-14T08:23:19.145Z,33.27
2018-04-14T08:25:46.613Z,31.53
2018-04-14T08:28:14.111Z,33.13
2018-04-14T08:30:43.109Z,32.07
2018-04-14T08:33:10.597Z,34.00
2018-04-14T08:35:38.845Z,33.43
2018-04-14T08:38:07.088Z,35.07
2018-04-14T08:40:34.577Z,43.60
2018-04-14T08:43:02.061Z,45.43
2018-04-14T08:45:30.316Z,42.23
2018-04-14T08:47:57.914Z,45.40
2018-04-14T08:50:25.406Z,44.13
2018-04-14T08:52:52.893Z,44.03
2018-04-14T08:55:21.161Z,42.60
2018-04-14T08:57:49.421Z,42.60
2018-04-14T09:00:16.884Z,44.30
2018-04-14T09:02:45.187Z,43.47
2018-04-14T09:05:12.667Z,42.77
2018-04-14T09:07:40.165Z,40.87
2018-04-14T09:10:07.653Z,40.87
2018-04-14T09:12:35.893Z,42.40
2018-04-14T09:15:04.109Z,43.70
2018-04-14T09:17:31.581Z,41.57
2018-04-14T09:19:59.073Z,41.37
2018-04-14T09:22:26.541Z,40.83
2018-04-14T09:24:54.050Z,40.80
2018-04-14T09:27:21.516Z,40.10
2018-04-14T09:29:49.009Z,35.57
2018-04-14T09:32:16.499Z,40.03
2018-04-14T09:34:44.752Z,42.17
2018-04-14T09:37:12.241Z,40.80
2018-04-14T09:39:39.714Z,42.43
2018-04-14T09:42:07.209Z,41.93
2018-04-14T09:44:35.458Z,41.47
2018-04-14T09:47:02.929Z,43.33
2018-04-14T09:49:30.416Z,42.30
2018-04-14T09:51:58.670Z,41.03
2018-04-14T09:54:26.158Z,41.87
2018-04-14T09:56:54.405Z,42.37
2018-04-14T09:59:22.188Z,38.83
2018-04-14T10:01:52.615Z,41.33
2018-04-14T10:04:20.852Z,40.10
2018-04-14T10:06:48.361Z,38.93
2018-04-14T10:09:15.828Z,40.20
2018-04-14T10:11:43.331Z,39.30
2018-04-14T10:14:10.804Z,40.03
2018-04-14T10:16:38.296Z,42.63
2018-04-14T10:19:05.768Z,43.80
2018-04-14T10:21:33.240Z,43.30
2018-04-14T10:24:00.732Z,40.87
2018-04-14T10:26:28.990Z,43.17
2018-04-14T10:28:56.496Z,42.87
2018-04-14T10:31:23.965Z,40.53
2018-04-14T10:33:51.512Z,41.00
2018-04-14T10:36:18.980Z,36.40
2018-04-14T10:38:46.448Z,38.30
2018-04-14T10:41:13.941Z,36.87
2018-04-14T10:43:41.425Z,38.60
2018-04-14T10:46:09.696Z,38.83
2018-04-14T10:48:37.184Z,38.50
2018-04-14T10:51:04.676Z,37.93
2018-04-14T10:53:32.149Z,39.77
2018-04-14T10:56:00.393Z,36.40
2018-04-14T10:58:27.944Z,35.77
2018-04-14T11:00:55.430Z,38.83
2018-04-14T11:03:23.046Z,39.67
2018-04-14T11:05:50.521Z,40.13
2018-04-14T11:08:18.017Z,38.10
2018-04-14T11:10:45.501Z,38.40
2018-04-14T11:13:12.978Z,38.17
2018-04-14T11:15:40.476Z,39.50
2018-04-14T11:18:07.973Z,37.73
2018-04-14T11:20:35.463Z,39.07
2018-04-14T11:23:02.997Z,36.57
2018-04-14T11:25:30.496Z,37.67
2018-04-14T11:27:57.969Z,39.40
2018-04-14T11:30:25.441Z,40.80
2018-04-14T11:32:53.692Z,41.57
2018-04-14T11:35:21.202Z,39.67
2018-04-14T11:37:48.696Z,40.87
2018-04-14T11:40:16.262Z,39.60
2018-04-14T11:42:44.122Z,39.10
2018-04-14T11:45:11.605Z,37.40
2018-04-14T11:47:39.841Z,39.90
2018-04-14T11:50:07.326Z,37.83
2018-04-14T11:52:35.578Z,35.73
2018-04-14T11:55:03.068Z,35.97
2018-04-14T11:57:31.320Z,36.67
2018-04-14T11:59:58.820Z,39.40
2018-04-14T12:02:26.333Z,35.53
2018-04-14T12:04:53.792Z,35.23
2018-04-14T12:07:21.278Z,34.13
2018-04-14T12:09:49.564Z,36.47
2018-04-14T12:12:17.793Z,33.63
2018-04-14T12:14:45.264Z,33.10
2018-04-14T12:17:13.517Z,35.13
2018-04-14T12:19:41.004Z,37.70
2018-04-14T12:22:09.254Z,36.80
2018-04-14T12:24:36.868Z,40.20
2018-04-14T12:27:04.337Z,35.53
2018-04-14T12:29:31.815Z,41.43
2018-04-14T12:31:59.296Z,36.90
2018-04-14T12:34:26.833Z,31.27
2018-04-14T12:36:54.616Z,31.10
2018-04-14T12:39:22.094Z,38.13
2018-04-14T12:41:49.606Z,36.70
2018-04-14T12:44:17.068Z,38.10
2018-04-14T12:46:46.049Z,35.90
2018-04-14T12:49:13.553Z,36.47
2018-04-14T12:51:41.785Z,32.87
2018-04-14T12:54:09.253Z,34.60
2018-04-14T12:56:36.738Z,34.77
2018-04-14T12:59:04.977Z,36.17
2018-04-14T13:01:32.500Z,36.00
2018-04-14T13:03:59.964Z,40.60
2018-04-14T13:06:27.452Z,41.30
2018-04-14T13:08:54.937Z,39.70
2018-04-14T13:11:22.425Z,43.00
2018-04-14T13:13:49.917Z,41.33
2018-04-14T13:16:17.430Z,42.80
2018-04-14T13:18:44.912Z,43.43
2018-04-14T13:21:12.411Z,40.27
2018-04-14T13:23:40.648Z,41.50
2018-04-14T13:26:08.154Z,39.00
2018-04-14T13:28:36.389Z,40.77
2018-04-14T13:31:03.873Z,38.17
2018-04-14T13:33:32.116Z,36.10
2018-04-14T13:35:59.625Z,34.50
2018-04-14T13:38:27.102Z,36.37
2018-04-14T13:40:54.585Z,35.23
2018-04-14T13:43:22.082Z,36.03
2018-04-14T13:45:50.316Z,35.80
2018-04-14T13:48:17.801Z,33.93
2018-04-14T13:50:46.036Z,35.17
2018-04-14T13:53:13.505Z,33.97
2018-04-14T13:55:40.996Z,35.67
2018-04-14T13:58:08.477Z,36.87
2018-04-14T14:00:35.969Z,36.73
2018-04-14T14:03:03.441Z,35.00
2018-04-14T14:05:30.913Z,36.00
2018-04-14T14:07:59.171Z,34.53
2018-04-14T14:10:26.644Z,35.77
2018-04-14T14:12:54.912Z,33.80
2018-04-14T14:15:23.172Z,33.40
2018-04-14T14:17:50.640Z,34.60
2018-04-14T14:20:18.904Z,35.47
2018-04-14T14:22:46.385Z,34.07
2018-04-14T14:25:13.885Z,33.80
2018-04-14T14:27:41.361Z,34.43
2018-04-14T14:30:08.848Z,33.77
2018-04-14T14:32:37.108Z,33.43
2018-04-14T14:35:04.581Z,35.10
2018-04-14T14:37:32.842Z,34.23
2018-04-14T14:40:01.082Z,34.67
2018-04-14T14:42:28.606Z,33.57
2018-04-14T14:44:56.828Z,33.80
2018-04-14T14:47:24.293Z,32.83
2018-04-14T14:49:58.248Z,32.87
2018-04-14T14:52:25.781Z,32.60
2018-04-14T14:54:54.032Z,33.70
2018-04-14T14:57:21.499Z,34.03
2018-04-14T14:59:49.741Z,31.43
2018-04-14T15:02:17.237Z,33.70
2018-04-14T15:04:45.473Z,33.90
2018-04-14T15:07:12.961Z,31.47
2018-04-14T15:09:41.205Z,32.17
2018-04-14T15:12:09.448Z,32.23
2018-04-14T15:14:36.932Z,32.03
2018-04-14T15:17:04.406Z,32.43
2018-04-14T15:19:31.897Z,31.60
2018-04-14T15:21:59.372Z,31.70
2018-04-14T15:24:28.235Z,32.13
2018-04-14T15:26:56.680Z,31.47
2018-04-14T15:29:24.156Z,31.77
2018-04-14T15:31:52.444Z,32.10
2018-04-14T15:34:20.693Z,30.57
2018-04-14T15:36:48.956Z,32.13
2018-04-14T15:39:16.478Z,31.73
2018-04-14T15:41:43.961Z,30.57
2018-04-14T15:44:11.472Z,29.53
2018-04-14T15:46:38.946Z,30.13
2018-04-14T15:49:06.418Z,30.47
2018-04-14T15:51:33.917Z,31.47
2018-04-14T15:54:02.156Z,32.27
2018-04-14T15:56:29.656Z,30.13
2018-04-14T15:58:57.169Z,28.77
2018-04-14T16:01:24.653Z,31.03
2018-04-14T16:03:53.018Z,30.63
2018-04-14T16:06:20.466Z,28.97
2018-04-14T16:08:47.965Z,29.97
2018-04-14T16:11:15.495Z,28.17
2018-04-14T16:13:42.936Z,28.37
2018-04-14T16:16:10.443Z,28.03
2018-04-14T16:18:37.922Z,28.50
2018-04-14T16:21:05.421Z,27.87
2018-04-14T16:23:32.955Z,28.67
2018-04-14T16:26:00.401Z,28.93
2018-04-14T16:28:27.904Z,29.00
2018-04-14T16:30:56.143Z,27.93
2018-04-14T16:33:23.639Z,28.97
2018-04-14T16:35:51.880Z,29.10
2018-04-14T16:38:19.353Z,28.27
2018-04-14T16:40:46.849Z,29.53
2018-04-14T16:43:14.927Z,29.40
2018-04-14T16:45:42.484Z,30.67
2018-04-14T16:48:09.954Z,30.23
2018-04-14T16:50:37.421Z,28.23
2018-04-14T16:53:04.915Z,29.43
2018-04-14T16:55:32.380Z,27.80
2018-04-14T16:58:00.642Z,27.63
2018-04-14T17:00:28.121Z,30.67
2018-04-14T17:02:55.602Z,30.10
2018-04-14T17:05:23.088Z,28.90
2018-04-14T17:07:50.560Z,27.67
2018-04-14T17:10:18.081Z,28.70
2018-04-14T17:12:45.564Z,27.23
2018-04-14T17:15:13.040Z,28.63
2018-04-14T17:17:41.292Z,27.53
2018-04-14T17:20:10.342Z,29.40
2018-04-14T17:22:37.878Z,28.73
2018-04-14T17:25:06.117Z,29.77
2018-04-14T17:27:34.457Z,29.43
2018-04-14T17:30:01.947Z,28.47
2018-04-14T17:32:29.413Z,28.70
2018-04-14T17:34:56.913Z,28.47
2018-04-14T17:37:24.405Z,28.73
2018-04-14T17:39:51.869Z,29.27
2018-04-14T17:42:19.366Z,29.23
2018-04-14T17:44:47.636Z,30.30
2018-04-14T17:47:15.912Z,28.60
2018-04-14T17:49:44.157Z,29.23
2018-04-14T17:52:11.628Z,27.70
2018-04-14T17:54:39.885Z,29.03
2018-04-14T17:57:07.362Z,29.53
2018-04-14T17:59:35.632Z,28.83
2018-04-14T18:02:03.901Z,28.00
2018-04-14T18:04:31.368Z,29.17
2018-04-14T18:06:59.681Z,27.47
2018-04-14T18:09:27.149Z,28.00
2018-04-14T18:11:54.640Z,27.20
2018-04-14T18:14:22.109Z,27.33
2018-04-14T18:16:50.348Z,26.83
2018-04-14T18:19:17.841Z,27.27
2018-04-14T18:21:46.109Z,26.03
2018-04-14T18:24:13.613Z,26.50
2018-04-14T18:26:41.130Z,29.97
2018-04-14T18:29:09.368Z,26.23
2018-04-14T18:31:36.860Z,27.43
2018-04-14T18:34:04.334Z,26.67
2018-04-14T18:36:31.821Z,27.47
2018-04-14T18:38:59.292Z,27.57
2018-04-14T18:41:26.764Z,27.30
2018-04-14T18:43:54.254Z,25.73
2018-04-14T18:46:22.550Z,25.67
2018-04-14T18:48:50.017Z,26.47
2018-04-14T18:51:17.685Z,25.30
2018-04-14T18:53:45.776Z,27.03
2018-04-14T18:56:13.250Z,28.17
2018-04-14T18:58:41.512Z,29.43
2018-04-14T19:01:08.981Z,28.37
2018-04-14T19:03:36.490Z,29.43
2018-04-14T19:06:03.960Z,28.60
2018-04-14T19:08:31.434Z,28.97
2018-04-14T19:10:58.921Z,28.27
2018-04-14T19:13:27.250Z,29.20
2018-04-14T19:15:54.741Z,29.47
2018-04-14T19:18:22.976Z,28.03
2018-04-14T19:20:50.445Z,28.53
2018-04-14T19:23:17.932Z,28.07
2018-04-14T19:25:46.173Z,30.00
2018-04-14T19:28:13.697Z,27.83
2018-04-14T19:30:41.168Z,28.50
2018-04-14T19:33:08.641Z,29.70
2018-04-14T19:35:36.133Z,29.80
2018-04-14T19:38:04.380Z,28.27
2018-04-14T19:40:32.170Z,27.40
2018-04-14T19:43:00.414Z,27.90
2018-04-14T19:45:27.892Z,29.90
2018-04-14T19:47:55.388Z,30.33
2018-04-14T19:50:22.857Z,30.73
2018-04-14T19:52:50.364Z,29.70
2018-04-14T19:55:17.840Z,31.63
2018-04-14T19:57:46.081Z,31.07
2018-04-14T20:00:13.586Z,32.57
2018-04-14T20:02:41.073Z,31.77
2018-04-14T20:05:08.564Z,32.50
2018-04-14T20:07:36.809Z,31.20
2018-04-14T20:10:04.285Z,31.77
2018-04-14T20:12:31.768Z,34.10
2018-04-14T20:14:59.346Z,32.97
2018-04-14T20:17:26.840Z,34.17
2018-04-14T20:19:54.342Z,39.70
2018-04-14T20:22:22.579Z,33.27
2018-04-14T20:24:50.073Z,32.03
2018-04-14T20:27:17.647Z,32.60
2018-04-14T20:29:45.205Z,33.97
2018-04-14T20:32:12.682Z,32.13
2018-04-14T20:34:40.148Z,33.53
2018-04-14T20:37:07.723Z,33.67
2018-04-14T20:39:35.157Z,31.97
2018-04-14T20:42:02.645Z,30.90
2018-04-14T20:44:30.117Z,31.73
2018-04-14T20:46:58.358Z,31.03
2018-04-14T20:49:25.850Z,31.30
2018-04-14T20:51:54.085Z,31.77
2018-04-14T20:54:21.869Z,32.93
2018-04-14T20:56:49.344Z,33.40
2018-04-14T20:59:17.642Z,33.60
2018-04-14T21:01:45.129Z,34.27
2018-04-14T21:04:12.596Z,34.50
2018-04-14T21:06:40.093Z,34.37
2018-04-14T21:09:07.669Z,35.33
2018-04-14T21:11:35.152Z,34.77
2018-04-14T21:14:02.633Z,35.37
2018-04-14T21:16:30.101Z,34.53
2018-04-14T21:18:58.414Z,36.77
2018-04-14T21:21:25.868Z,33.47
2018-04-14T21:23:53.361Z,25.20
2018-04-14T21:26:20.867Z,27.67
2018-04-14T21:28:48.333Z,28.97
2018-04-14T21:31:15.828Z,29.20
2018-04-14T21:33:43.300Z,30.57
2018-04-14T21:36:10.772Z,30.87
2018-04-14T21:38:39.025Z,25.40
2018-04-14T21:41:06.547Z,21.60
2018-04-14T21:43:34.773Z,22.33
2018-04-14T21:46:03.013Z,16.83
2018-04-14T21:48:30.481Z,14.80
2018-04-14T21:50:57.981Z,12.37
2018-04-14T21:53:25.453Z,10.87
2018-04-14T21:55:52.944Z,7.90
2018-04-14T21:58:20.412Z,7.03
2018-04-14T22:00:47.923Z,6.50
2018-04-14T22:03:15.405Z,5.73
2018-04-14T22:05:42.878Z,4.70
2018-04-14T22:08:10.361Z,4.77
2018-04-14T22:10:38.595Z,4.47
2018-04-14T22:13:06.123Z,4.40
2018-04-14T22:15:33.609Z,3.97
2018-04-14T22:18:01.073Z,3.87
2018-04-14T22:20:28.560Z,4.10
2018-04-14T22:22:56.789Z,3.90
2018-04-14T22:25:24.312Z,3.30
2018-04-14T22:27:51.754Z,4.27
2018-04-14T22:30:19.985Z,3.70
2018-04-14T22:32:47.506Z,4.30
2018-04-14T22:35:14.968Z,4.43
2018-04-14T22:37:42.491Z,3.80
2018-04-14T22:40:09.946Z,3.97
2018-04-14T22:42:38.191Z,4.07
2018-04-14T22:45:05.677Z,3.97
2018-04-14T22:47:33.908Z,4.30
2018-04-14T22:50:01.372Z,4.33
2018-04-14T22:52:28.853Z,4.33
2018-04-14T22:54:57.084Z,4.10
2018-04-14T22:57:24.572Z,4.20
2018-04-14T22:59:52.078Z,4.00
2018-04-14T23:02:19.540Z,4.13
2018-04-14T23:04:47.024Z,5.10
2018-04-14T23:07:14.493Z,5.33
2018-04-14T23:09:41.986Z,4.17
2018-04-14T23:12:09.451Z,3.83
2018-04-14T23:14:36.913Z,4.73
2018-04-14T23:17:04.388Z,3.80
2018-04-14T23:19:31.853Z,3.63
2018-04-14T23:21:59.644Z,4.50
2018-04-14T23:24:27.108Z,3.77
2018-04-14T23:26:55.337Z,4.30
2018-04-14T23:29:22.856Z,4.33
2018-04-14T23:31:50.323Z,4.50
2018-04-14T23:34:17.806Z,4.50
2018-04-14T23:36:45.274Z,3.90
2018-04-14T23:39:12.738Z,4.80
2018-04-14T23:41:40.227Z,4.83
2018-04-14T23:44:08.870Z,4.80
2018-04-14T23:46:36.357Z,5.00
2018-04-14T23:49:04.592Z,5.97
2018-04-14T23:51:32.054Z,5.30
2018-04-14T23:53:59.534Z,4.97
2018-04-14T23:56:27.000Z,5.63
2018-04-14T23:58:55.461Z,5.07
